sensor_id;sensor_type;location;lat;lon;timestamp;P1;durP1;ratioP1;P2;durP2;ratioP2
11269;SDS011;5692;48.956;9.200;2023-05-10T00:02:00;181.73;;;173.02;;
11269;SDS011;5692;48.956;9.200;2023-05-10T00:04:29;187.57;;;178.57;;
11269;SDS011;5692;48.956;9.200;2023-05-10T00:06:55;194.95;;;185.65;;
11269;SDS011;5692;48.956;9.200;2023-05-10T00:09:21;195.23;;;185.88;;
11269;SDS011;5692;48.956;9.200;2023-05-10T00:11:50;189.77;;;180.68;;
11269;SDS011;5692;48.956;9.200;2023-05-10T00:14:16;184.85;;;176.00;;
11269;SDS011;5692;48.956;9.200;2023-05-10T00:16:42;195.02;;;185.70;;
11269;SDS011;5692;48.956;9.200;2023-05-10T00:19:08;190.85;;;181.73;;
11269;SDS011;5692;48.956;9.200;2023-05-10T00:21:34;184.18;;;175.35;;
11269;SDS011;5692;48.956;9.200;2023-05-10T00:24:00;201.95;;;192.27;;
11269;SDS011;5692;48.956;9.200;2023-05-10T00:26:26;180.90;;;172.20;;
11269;SDS011;5692;48.956;9.200;2023-05-10T00:28:52;180.30;;;171.70;;
11269;SDS011;5692;48.956;9.200;2023-05-10T00:31:18;186.90;;;177.95;;
11269;SDS011;5692;48.956;9.200;2023-05-10T00:33:45;185.00;;;176.15;;
11269;SDS011;5692;48.956;9.200;2023-05-10T00:36:11;183.50;;;174.70;;
11269;SDS011;5692;48.956;9.200;2023-05-10T00:38:40;186.77;;;177.85;;
11269;SDS011;5692;48.956;9.200;2023-05-10T00:41:06;193.70;;;184.40;;
11269;SDS011;5692;48.956;9.200;2023-05-10T00:43:35;185.45;;;176.55;;
11269;SDS011;5692;48.956;9.200;2023-05-10T00:46:02;184.93;;;176.07;;
11269;SDS011;5692;48.956;9.200;2023-05-10T00:48:28;175.45;;;167.05;;
11269;SDS011;5692;48.956;9.200;2023-05-10T00:50:54;181.35;;;172.68;;
11269;SDS011;5692;48.956;9.200;2023-05-10T00:53:21;173.43;;;165.13;;
11269;SDS011;5692;48.956;9.200;2023-05-10T00:55:50;172.55;;;164.27;;
11269;SDS011;5692;48.956;9.200;2023-05-10T00:58:16;176.90;;;168.40;;
11269;SDS011;5692;48.956;9.200;2023-05-10T01:00:42;167.60;;;159.60;;
11269;SDS011;5692;48.956;9.200;2023-05-10T01:03:10;174.73;;;166.35;;
11269;SDS011;5692;48.956;9.200;2023-05-10T01:05:39;172.52;;;164.23;;
11269;SDS011;5692;48.956;9.200;2023-05-10T01:08:06;169.82;;;161.73;;
11269;SDS011;5692;48.956;9.200;2023-05-10T01:10:33;159.95;;;152.30;;
11269;SDS011;5692;48.956;9.200;2023-05-10T01:12:59;181.55;;;172.85;;
11269;SDS011;5692;48.956;9.200;2023-05-10T01:15:26;169.95;;;161.80;;
11269;SDS011;5692;48.956;9.200;2023-05-10T01:17:52;176.13;;;167.68;;
11269;SDS011;5692;48.956;9.200;2023-05-10T01:20:19;171.52;;;163.30;;
11269;SDS011;5692;48.956;9.200;2023-05-10T01:28:07;174.27;;;165.93;;
11269;SDS011;5692;48.956;9.200;2023-05-10T01:35:55;161.27;;;153.57;;
11269;SDS011;5692;48.956;9.200;2023-05-10T01:38:46;170.63;;;162.45;;
11269;SDS011;5692;48.956;9.200;2023-05-10T01:41:18;164.43;;;156.55;;
11269;SDS011;5692;48.956;9.200;2023-05-10T01:46:14;167.47;;;159.47;;
11269;SDS011;5692;48.956;9.200;2023-05-10T01:48:51;166.60;;;158.60;;
11269;SDS011;5692;48.956;9.200;2023-05-10T01:51:21;159.95;;;152.25;;
11269;SDS011;5692;48.956;9.200;2023-05-10T01:53:48;156.25;;;148.75;;
11269;SDS011;5692;48.956;9.200;2023-05-10T01:56:15;160.95;;;153.25;;
11269;SDS011;5692;48.956;9.200;2023-05-10T01:58:43;169.32;;;161.23;;
11269;SDS011;5692;48.956;9.200;2023-05-10T02:01:10;170.98;;;162.77;;
11269;SDS011;5692;48.956;9.200;2023-05-10T02:03:37;161.32;;;153.63;;
11269;SDS011;5692;48.956;9.200;2023-05-10T02:06:04;165.25;;;157.35;;
11269;SDS011;5692;48.956;9.200;2023-05-10T02:08:34;156.75;;;149.23;;
11269;SDS011;5692;48.956;9.200;2023-05-10T02:11:02;152.60;;;145.30;;
11269;SDS011;5692;48.956;9.200;2023-05-10T02:13:29;150.93;;;143.70;;
11269;SDS011;5692;48.956;9.200;2023-05-10T02:15:59;169.02;;;160.93;;
11269;SDS011;5692;48.956;9.200;2023-05-10T02:18:27;172.27;;;164.02;;
11269;SDS011;5692;48.956;9.200;2023-05-10T02:20:53;171.95;;;163.70;;
11269;SDS011;5692;48.956;9.200;2023-05-10T02:23:23;163.98;;;156.07;;
11269;SDS011;5692;48.956;9.200;2023-05-10T02:25:49;173.40;;;165.10;;
11269;SDS011;5692;48.956;9.200;2023-05-10T02:28:17;171.15;;;162.95;;
11269;SDS011;5692;48.956;9.200;2023-05-10T02:30:43;174.77;;;166.40;;
11269;SDS011;5692;48.956;9.200;2023-05-10T02:33:10;179.90;;;171.30;;
11269;SDS011;5692;48.956;9.200;2023-05-10T02:35:36;178.77;;;170.18;;
11269;SDS011;5692;48.956;9.200;2023-05-10T02:38:06;175.20;;;166.80;;
11269;SDS011;5692;48.956;9.200;2023-05-10T02:40:33;169.57;;;161.48;;
11269;SDS011;5692;48.956;9.200;2023-05-10T02:42:59;164.73;;;156.82;;
11269;SDS011;5692;48.956;9.200;2023-05-10T02:45:30;177.93;;;169.43;;
11269;SDS011;5692;48.956;9.200;2023-05-10T02:47:57;171.52;;;163.32;;
11269;SDS011;5692;48.956;9.200;2023-05-10T02:50:25;175.43;;;167.02;;
11269;SDS011;5692;48.956;9.200;2023-05-10T02:52:52;162.02;;;154.25;;
11269;SDS011;5692;48.956;9.200;2023-05-10T02:55:21;172.02;;;163.77;;
11269;SDS011;5692;48.956;9.200;2023-05-10T02:57:56;165.75;;;157.80;;
11269;SDS011;5692;48.956;9.200;2023-05-10T03:00:24;165.95;;;158.00;;
11269;SDS011;5692;48.956;9.200;2023-05-10T03:02:50;176.93;;;168.45;;
11269;SDS011;5692;48.956;9.200;2023-05-10T03:05:19;184.32;;;175.52;;
11269;SDS011;5692;48.956;9.200;2023-05-10T03:07:45;177.57;;;169.07;;
11269;SDS011;5692;48.956;9.200;2023-05-10T03:10:12;149.80;;;142.60;;
11269;SDS011;5692;48.956;9.200;2023-05-10T03:20:48;169.50;;;161.38;;
11269;SDS011;5692;48.956;9.200;2023-05-10T03:25:52;157.45;;;149.93;;
11269;SDS011;5692;48.956;9.200;2023-05-10T03:28:21;173.05;;;164.75;;
11269;SDS011;5692;48.956;9.200;2023-05-10T03:30:50;170.90;;;162.73;;
11269;SDS011;5692;48.956;9.200;2023-05-10T03:33:18;173.70;;;165.40;;
11269;SDS011;5692;48.956;9.200;2023-05-10T03:35:44;173.27;;;164.98;;
11269;SDS011;5692;48.956;9.200;2023-05-10T03:38:11;175.35;;;166.95;;
11269;SDS011;5692;48.956;9.200;2023-05-10T03:40:37;169.25;;;161.15;;
11269;SDS011;5692;48.956;9.200;2023-05-10T03:43:03;162.43;;;154.63;;
11269;SDS011;5692;48.956;9.200;2023-05-10T03:45:29;166.23;;;158.25;;
11269;SDS011;5692;48.956;9.200;2023-05-10T03:47:58;161.68;;;153.93;;
11269;SDS011;5692;48.956;9.200;2023-05-10T03:50:24;165.98;;;158.02;;
11269;SDS011;5692;48.956;9.200;2023-05-10T03:52:51;169.70;;;161.57;;
11269;SDS011;5692;48.956;9.200;2023-05-10T03:55:17;166.95;;;158.95;;
11269;SDS011;5692;48.956;9.200;2023-05-10T03:57:43;153.70;;;146.32;;
11269;SDS011;5692;48.956;9.200;2023-05-10T04:00:09;156.32;;;148.82;;
11269;SDS011;5692;48.956;9.200;2023-05-10T04:02:35;155.40;;;147.95;;
11269;SDS011;5692;48.956;9.200;2023-05-10T04:05:01;148.35;;;141.25;;
11269;SDS011;5692;48.956;9.200;2023-05-10T04:07:27;149.63;;;142.43;;
11269;SDS011;5692;48.956;9.200;2023-05-10T04:09:54;155.80;;;148.35;;
11269;SDS011;5692;48.956;9.200;2023-05-10T04:12:20;146.57;;;139.57;;
11269;SDS011;5692;48.956;9.200;2023-05-10T04:14:46;156.93;;;149.43;;
11269;SDS011;5692;48.956;9.200;2023-05-10T04:17:12;150.70;;;143.50;;
11269;SDS011;5692;48.956;9.200;2023-05-10T04:19:38;150.30;;;143.10;;
11269;SDS011;5692;48.956;9.200;2023-05-10T04:22:04;159.32;;;151.68;;
11269;SDS011;5692;48.956;9.200;2023-05-10T04:24:31;152.05;;;144.75;;
11269;SDS011;5692;48.956;9.200;2023-05-10T04:26:57;151.60;;;144.30;;
11269;SDS011;5692;48.956;9.200;2023-05-10T04:29:23;154.02;;;146.65;;
11269;SDS011;5692;48.956;9.200;2023-05-10T04:31:49;153.38;;;146.02;;
11269;SDS011;5692;48.956;9.200;2023-05-10T04:34:15;145.15;;;138.15;;
11269;SDS011;5692;48.956;9.200;2023-05-10T04:36:42;164.38;;;156.48;;
11269;SDS011;5692;48.956;9.200;2023-05-10T04:39:08;148.50;;;141.40;;
11269;SDS011;5692;48.956;9.200;2023-05-10T04:41:34;151.85;;;144.55;;
11269;SDS011;5692;48.956;9.200;2023-05-10T04:44:01;148.18;;;141.05;;
11269;SDS011;5692;48.956;9.200;2023-05-10T04:46:27;136.02;;;129.50;;
11269;SDS011;5692;48.956;9.200;2023-05-10T04:48:53;162.57;;;154.77;;
11269;SDS011;5692;48.956;9.200;2023-05-10T04:51:19;155.63;;;148.13;;
11269;SDS011;5692;48.956;9.200;2023-05-10T04:53:48;162.02;;;154.23;;
11269;SDS011;5692;48.956;9.200;2023-05-10T04:56:14;169.73;;;161.60;;
11269;SDS011;5692;48.956;9.200;2023-05-10T04:58:41;162.18;;;154.38;;
11269;SDS011;5692;48.956;9.200;2023-05-10T05:01:07;157.40;;;149.88;;
11269;SDS011;5692;48.956;9.200;2023-05-10T05:03:36;163.93;;;156.07;;
11269;SDS011;5692;48.956;9.200;2023-05-10T05:06:02;154.23;;;146.82;;
11269;SDS011;5692;48.956;9.200;2023-05-10T05:08:29;157.45;;;149.90;;
11269;SDS011;5692;48.956;9.200;2023-05-10T05:10:55;164.65;;;156.75;;
11269;SDS011;5692;48.956;9.200;2023-05-10T05:13:24;152.75;;;145.43;;
11269;SDS011;5692;48.956;9.200;2023-05-10T05:15:50;157.40;;;149.90;;
11269;SDS011;5692;48.956;9.200;2023-05-10T05:18:16;161.40;;;153.68;;
11269;SDS011;5692;48.956;9.200;2023-05-10T05:20:42;156.23;;;148.73;;
11269;SDS011;5692;48.956;9.200;2023-05-10T05:23:09;147.82;;;140.73;;
11269;SDS011;5692;48.956;9.200;2023-05-10T05:25:35;156.73;;;149.23;;
11269;SDS011;5692;48.956;9.200;2023-05-10T05:28:01;163.10;;;155.30;;
11269;SDS011;5692;48.956;9.200;2023-05-10T05:30:27;157.00;;;149.50;;
11269;SDS011;5692;48.956;9.200;2023-05-10T05:32:56;167.00;;;159.00;;
11269;SDS011;5692;48.956;9.200;2023-05-10T05:35:22;162.07;;;154.27;;
11269;SDS011;5692;48.956;9.200;2023-05-10T05:37:48;159.23;;;151.63;;
11269;SDS011;5692;48.956;9.200;2023-05-10T05:40:14;155.10;;;147.70;;
11269;SDS011;5692;48.956;9.200;2023-05-10T05:42:40;160.93;;;153.23;;
11269;SDS011;5692;48.956;9.200;2023-05-10T05:45:07;163.70;;;155.88;;
11269;SDS011;5692;48.956;9.200;2023-05-10T05:47:33;168.27;;;160.20;;
11269;SDS011;5692;48.956;9.200;2023-05-10T05:49:59;164.20;;;156.30;;
11269;SDS011;5692;48.956;9.200;2023-05-10T05:52:25;171.85;;;163.65;;
11269;SDS011;5692;48.956;9.200;2023-05-10T05:54:52;161.70;;;153.95;;
11269;SDS011;5692;48.956;9.200;2023-05-10T05:57:18;150.93;;;143.68;;
11269;SDS011;5692;48.956;9.200;2023-05-10T05:59:44;157.77;;;150.23;;
11269;SDS011;5692;48.956;9.200;2023-05-10T06:02:10;160.52;;;152.82;;
11269;SDS011;5692;48.956;9.200;2023-05-10T06:04:39;165.88;;;157.93;;
11269;SDS011;5692;48.956;9.200;2023-05-10T06:07:05;159.85;;;152.15;;
11269;SDS011;5692;48.956;9.200;2023-05-10T06:09:34;149.15;;;142.00;;
11269;SDS011;5692;48.956;9.200;2023-05-10T06:12:00;160.38;;;152.70;;
11269;SDS011;5692;48.956;9.200;2023-05-10T06:14:26;175.80;;;167.38;;
11269;SDS011;5692;48.956;9.200;2023-05-10T06:16:52;185.30;;;176.45;;
11269;SDS011;5692;48.956;9.200;2023-05-10T06:19:18;173.18;;;164.88;;
11269;SDS011;5692;48.956;9.200;2023-05-10T06:21:44;175.80;;;167.40;;
11269;SDS011;5692;48.956;9.200;2023-05-10T06:24:10;168.57;;;160.48;;
11269;SDS011;5692;48.956;9.200;2023-05-10T06:26:37;171.70;;;163.48;;
11269;SDS011;5692;48.956;9.200;2023-05-10T06:29:03;161.00;;;153.27;;
11269;SDS011;5692;48.956;9.200;2023-05-10T06:31:29;162.77;;;154.98;;
11269;SDS011;5692;48.956;9.200;2023-05-10T06:33:57;164.60;;;156.70;;
11269;SDS011;5692;48.956;9.200;2023-05-10T06:36:26;171.77;;;163.57;;
11269;SDS011;5692;48.956;9.200;2023-05-10T06:38:52;177.10;;;168.60;;
11269;SDS011;5692;48.956;9.200;2023-05-10T06:41:19;155.55;;;148.05;;
11269;SDS011;5692;48.956;9.200;2023-05-10T06:43:46;169.35;;;161.23;;
11269;SDS011;5692;48.956;9.200;2023-05-10T06:46:12;166.43;;;158.43;;
11269;SDS011;5692;48.956;9.200;2023-05-10T06:48:38;162.27;;;154.48;;
11269;SDS011;5692;48.956;9.200;2023-05-10T06:51:04;165.68;;;157.73;;
11269;SDS011;5692;48.956;9.200;2023-05-10T06:53:30;165.85;;;157.88;;
11269;SDS011;5692;48.956;9.200;2023-05-10T06:55:56;163.98;;;156.13;;
11269;SDS011;5692;48.956;9.200;2023-05-10T06:58:22;164.85;;;156.95;;
11269;SDS011;5692;48.956;9.200;2023-05-10T07:00:48;168.13;;;160.07;;
11269;SDS011;5692;48.956;9.200;2023-05-10T07:03:14;178.73;;;170.15;;
11269;SDS011;5692;48.956;9.200;2023-05-10T07:05:40;166.23;;;158.25;;
11269;SDS011;5692;48.956;9.200;2023-05-10T07:08:07;170.45;;;162.30;;
11269;SDS011;5692;48.956;9.200;2023-05-10T07:10:33;179.55;;;170.95;;
11269;SDS011;5692;48.956;9.200;2023-05-10T07:12:59;174.40;;;166.05;;
11269;SDS011;5692;48.956;9.200;2023-05-10T07:15:26;176.27;;;167.82;;
11269;SDS011;5692;48.956;9.200;2023-05-10T07:17:53;174.85;;;166.45;;
11269;SDS011;5692;48.956;9.200;2023-05-10T07:20:19;182.73;;;173.98;;
11269;SDS011;5692;48.956;9.200;2023-05-10T07:22:45;187.30;;;178.35;;
11269;SDS011;5692;48.956;9.200;2023-05-10T07:25:11;185.25;;;176.40;;
11269;SDS011;5692;48.956;9.200;2023-05-10T07:27:37;177.60;;;169.10;;
11269;SDS011;5692;48.956;9.200;2023-05-10T07:30:03;168.68;;;160.60;;
11269;SDS011;5692;48.956;9.200;2023-05-10T07:32:30;177.55;;;169.05;;
11269;SDS011;5692;48.956;9.200;2023-05-10T07:34:59;161.55;;;153.80;;
11269;SDS011;5692;48.956;9.200;2023-05-10T07:37:25;179.80;;;171.20;;
11269;SDS011;5692;48.956;9.200;2023-05-10T07:39:51;172.88;;;164.57;;
11269;SDS011;5692;48.956;9.200;2023-05-10T07:42:17;178.98;;;170.38;;
11269;SDS011;5692;48.956;9.200;2023-05-10T07:44:45;175.30;;;166.90;;
11269;SDS011;5692;48.956;9.200;2023-05-10T07:47:12;156.80;;;149.27;;
11269;SDS011;5692;48.956;9.200;2023-05-10T07:49:38;161.95;;;154.20;;
11269;SDS011;5692;48.956;9.200;2023-05-10T07:52:04;165.25;;;157.35;;
11269;SDS011;5692;48.956;9.200;2023-05-10T07:54:30;183.47;;;174.67;;
11269;SDS011;5692;48.956;9.200;2023-05-10T07:56:56;168.02;;;159.98;;
11269;SDS011;5692;48.956;9.200;2023-05-10T07:59:24;165.15;;;157.23;;
11269;SDS011;5692;48.956;9.200;2023-05-10T08:01:50;164.65;;;156.75;;
11269;SDS011;5692;48.956;9.200;2023-05-10T08:04:16;162.35;;;154.55;;
11269;SDS011;5692;48.956;9.200;2023-05-10T08:06:42;176.27;;;167.82;;
11269;SDS011;5692;48.956;9.200;2023-05-10T08:09:11;175.98;;;167.55;;
11269;SDS011;5692;48.956;9.200;2023-05-10T08:11:37;172.25;;;164.00;;
11269;SDS011;5692;48.956;9.200;2023-05-10T08:14:03;172.07;;;163.82;;
11269;SDS011;5692;48.956;9.200;2023-05-10T08:16:29;156.80;;;149.30;;
11269;SDS011;5692;48.956;9.200;2023-05-10T08:18:55;172.30;;;164.00;;
11269;SDS011;5692;48.956;9.200;2023-05-10T08:21:21;150.55;;;143.35;;
11269;SDS011;5692;48.956;9.200;2023-05-10T08:23:47;153.88;;;146.48;;
11269;SDS011;5692;48.956;9.200;2023-05-10T08:26:14;163.48;;;155.68;;
11269;SDS011;5692;48.956;9.200;2023-05-10T08:28:40;165.00;;;157.10;;
11269;SDS011;5692;48.956;9.200;2023-05-10T08:31:06;168.90;;;160.80;;
11269;SDS011;5692;48.956;9.200;2023-05-10T08:33:32;163.30;;;155.50;;
11269;SDS011;5692;48.956;9.200;2023-05-10T08:35:58;167.32;;;159.32;;
11269;SDS011;5692;48.956;9.200;2023-05-10T08:38:24;171.35;;;163.15;;
11269;SDS011;5692;48.956;9.200;2023-05-10T08:40:50;177.48;;;168.98;;
11269;SDS011;5692;48.956;9.200;2023-05-10T08:43:21;176.90;;;168.43;;
11269;SDS011;5692;48.956;9.200;2023-05-10T08:45:49;154.73;;;147.32;;
11269;SDS011;5692;48.956;9.200;2023-05-10T08:48:15;163.80;;;155.95;;
11269;SDS011;5692;48.956;9.200;2023-05-10T08:50:42;169.32;;;161.23;;
11269;SDS011;5692;48.956;9.200;2023-05-10T08:53:11;155.50;;;148.02;;
11269;SDS011;5692;48.956;9.200;2023-05-10T08:55:38;153.07;;;145.73;;
11269;SDS011;5692;48.956;9.200;2023-05-10T08:58:05;151.48;;;144.20;;
11269;SDS011;5692;48.956;9.200;2023-05-10T09:00:32;167.40;;;159.40;;
11269;SDS011;5692;48.956;9.200;2023-05-10T09:02:58;164.05;;;156.18;;
11269;SDS011;5692;48.956;9.200;2023-05-10T09:05:25;169.40;;;161.30;;
11269;SDS011;5692;48.956;9.200;2023-05-10T09:07:51;165.88;;;157.93;;
11269;SDS011;5692;48.956;9.200;2023-05-10T09:10:18;171.80;;;163.57;;
11269;SDS011;5692;48.956;9.200;2023-05-10T09:12:44;161.63;;;153.90;;
11269;SDS011;5692;48.956;9.200;2023-05-10T09:15:11;161.82;;;154.05;;
11269;SDS011;5692;48.956;9.200;2023-05-10T09:17:39;152.93;;;145.63;;
11269;SDS011;5692;48.956;9.200;2023-05-10T09:20:06;160.60;;;152.90;;
11269;SDS011;5692;48.956;9.200;2023-05-10T09:22:34;158.75;;;151.15;;
11269;SDS011;5692;48.956;9.200;2023-05-10T09:27:30;151.52;;;144.23;;
11269;SDS011;5692;48.956;9.200;2023-05-10T09:29:56;161.93;;;154.15;;
11269;SDS011;5692;48.956;9.200;2023-05-10T09:32:24;172.13;;;163.88;;
11269;SDS011;5692;48.956;9.200;2023-05-10T09:35:15;144.75;;;137.80;;
11269;SDS011;5692;48.956;9.200;2023-05-10T09:37:44;146.82;;;139.77;;
11269;SDS011;5692;48.956;9.200;2023-05-10T09:40:12;150.02;;;142.82;;
11269;SDS011;5692;48.956;9.200;2023-05-10T09:42:38;156.95;;;149.45;;
11269;SDS011;5692;48.956;9.200;2023-05-10T09:45:04;141.85;;;135.05;;
11269;SDS011;5692;48.956;9.200;2023-05-10T09:47:31;151.20;;;143.95;;
11269;SDS011;5692;48.956;9.200;2023-05-10T09:50:01;149.75;;;142.55;;
11269;SDS011;5692;48.956;9.200;2023-05-10T09:52:29;161.63;;;153.88;;
11269;SDS011;5692;48.956;9.200;2023-05-10T09:54:58;177.82;;;169.32;;
11269;SDS011;5692;48.956;9.200;2023-05-10T09:57:24;176.05;;;167.63;;
11269;SDS011;5692;48.956;9.200;2023-05-10T09:59:51;172.90;;;164.60;;
11269;SDS011;5692;48.956;9.200;2023-05-10T10:02:19;168.77;;;160.70;;
11269;SDS011;5692;48.956;9.200;2023-05-10T10:04:45;173.73;;;165.43;;
11269;SDS011;5692;48.956;9.200;2023-05-10T10:07:15;183.77;;;174.98;;
11269;SDS011;5692;48.956;9.200;2023-05-10T10:09:50;177.73;;;169.23;;
11269;SDS011;5692;48.956;9.200;2023-05-10T10:12:16;178.20;;;169.68;;
11269;SDS011;5692;48.956;9.200;2023-05-10T10:14:46;172.38;;;164.13;;
11269;SDS011;5692;48.956;9.200;2023-05-10T10:17:14;174.93;;;166.57;;
11269;SDS011;5692;48.956;9.200;2023-05-10T10:19:45;184.00;;;175.18;;
11269;SDS011;5692;48.956;9.200;2023-05-10T10:22:11;176.30;;;167.85;;
11269;SDS011;5692;48.956;9.200;2023-05-10T10:24:37;200.30;;;190.73;;
11269;SDS011;5692;48.956;9.200;2023-05-10T10:27:19;187.32;;;178.32;;
11269;SDS011;5692;48.956;9.200;2023-05-10T10:29:50;188.80;;;179.77;;
11269;SDS011;5692;48.956;9.200;2023-05-10T10:34:50;177.55;;;169.05;;
11269;SDS011;5692;48.956;9.200;2023-05-10T10:37:18;192.13;;;182.93;;
11269;SDS011;5692;48.956;9.200;2023-05-10T10:39:44;177.68;;;169.15;;
11269;SDS011;5692;48.956;9.200;2023-05-10T10:42:10;181.37;;;172.67;;
11269;SDS011;5692;48.956;9.200;2023-05-10T10:44:36;189.50;;;180.40;;
11269;SDS011;5692;48.956;9.200;2023-05-10T10:49:49;192.80;;;183.57;;
11269;SDS011;5692;48.956;9.200;2023-05-10T10:52:23;197.02;;;187.57;;
11269;SDS011;5692;48.956;9.200;2023-05-10T10:54:57;191.73;;;182.52;;
11269;SDS011;5692;48.956;9.200;2023-05-10T10:57:24;191.23;;;182.02;;
11269;SDS011;5692;48.956;9.200;2023-05-10T10:59:51;187.38;;;178.38;;
11269;SDS011;5692;48.956;9.200;2023-05-10T11:02:34;184.25;;;175.43;;
11269;SDS011;5692;48.956;9.200;2023-05-10T11:07:53;186.57;;;177.65;;
11269;SDS011;5692;48.956;9.200;2023-05-10T11:10:23;192.52;;;183.32;;
11269;SDS011;5692;48.956;9.200;2023-05-10T11:15:19;198.70;;;189.20;;
11269;SDS011;5692;48.956;9.200;2023-05-10T11:17:47;200.65;;;191.05;;
11269;SDS011;5692;48.956;9.200;2023-05-10T11:20:16;187.95;;;178.95;;
11269;SDS011;5692;48.956;9.200;2023-05-10T11:22:54;191.80;;;182.63;;
11269;SDS011;5692;48.956;9.200;2023-05-10T11:25:26;182.43;;;173.70;;
11269;SDS011;5692;48.956;9.200;2023-05-10T11:27:53;215.60;;;205.27;;
11269;SDS011;5692;48.956;9.200;2023-05-10T11:30:19;201.77;;;192.13;;
11269;SDS011;5692;48.956;9.200;2023-05-10T11:32:45;195.18;;;185.85;;
11269;SDS011;5692;48.956;9.200;2023-05-10T11:35:11;200.38;;;190.80;;
11269;SDS011;5692;48.956;9.200;2023-05-10T11:37:40;202.77;;;193.07;;
11269;SDS011;5692;48.956;9.200;2023-05-10T11:40:09;183.55;;;174.75;;
11269;SDS011;5692;48.956;9.200;2023-05-10T11:42:41;190.52;;;181.40;;
11269;SDS011;5692;48.956;9.200;2023-05-10T11:45:07;198.45;;;188.95;;
11269;SDS011;5692;48.956;9.200;2023-05-10T11:47:33;183.80;;;175.00;;
11269;SDS011;5692;48.956;9.200;2023-05-10T11:50:00;195.88;;;186.50;;
11269;SDS011;5692;48.956;9.200;2023-05-10T11:52:26;207.80;;;197.85;;
11269;SDS011;5692;48.956;9.200;2023-05-10T11:54:55;208.05;;;198.10;;
11269;SDS011;5692;48.956;9.200;2023-05-10T11:57:25;214.25;;;204.00;;
11269;SDS011;5692;48.956;9.200;2023-05-10T11:59:58;209.75;;;199.75;;
11269;SDS011;5692;48.956;9.200;2023-05-10T12:02:25;215.40;;;205.10;;
11269;SDS011;5692;48.956;9.200;2023-05-10T12:04:51;206.77;;;196.90;;
11269;SDS011;5692;48.956;9.200;2023-05-10T12:07:17;212.38;;;202.20;;
11269;SDS011;5692;48.956;9.200;2023-05-10T12:09:43;201.57;;;191.93;;
11269;SDS011;5692;48.956;9.200;2023-05-10T12:12:10;209.02;;;199.02;;
11269;SDS011;5692;48.956;9.200;2023-05-10T12:14:38;202.55;;;192.85;;
11269;SDS011;5692;48.956;9.200;2023-05-10T12:17:04;194.95;;;185.63;;
11269;SDS011;5692;48.956;9.200;2023-05-10T12:19:37;201.05;;;191.45;;
11269;SDS011;5692;48.956;9.200;2023-05-10T12:22:06;188.20;;;179.20;;
11269;SDS011;5692;48.956;9.200;2023-05-10T12:24:36;198.98;;;189.48;;
11269;SDS011;5692;48.956;9.200;2023-05-10T12:27:05;181.35;;;172.65;;
11269;SDS011;5692;48.956;9.200;2023-05-10T12:29:33;183.30;;;174.52;;
11269;SDS011;5692;48.956;9.200;2023-05-10T12:31:59;190.38;;;181.27;;
11269;SDS011;5692;48.956;9.200;2023-05-10T12:34:26;192.65;;;183.43;;
11269;SDS011;5692;48.956;9.200;2023-05-10T12:36:53;179.27;;;170.68;;
11269;SDS011;5692;48.956;9.200;2023-05-10T12:39:19;185.13;;;176.25;;
11269;SDS011;5692;48.956;9.200;2023-05-10T12:41:47;172.88;;;164.57;;
11269;SDS011;5692;48.956;9.200;2023-05-10T12:44:14;180.60;;;171.95;;
11269;SDS011;5692;48.956;9.200;2023-05-10T12:46:40;183.70;;;174.90;;
11269;SDS011;5692;48.956;9.200;2023-05-10T12:49:08;186.27;;;177.38;;
11269;SDS011;5692;48.956;9.200;2023-05-10T12:51:35;183.40;;;174.60;;
11269;SDS011;5692;48.956;9.200;2023-05-10T12:54:02;190.05;;;180.95;;
11269;SDS011;5692;48.956;9.200;2023-05-10T12:56:28;178.50;;;169.95;;
11269;SDS011;5692;48.956;9.200;2023-05-10T12:58:54;182.07;;;173.38;;
11269;SDS011;5692;48.956;9.200;2023-05-10T13:01:20;181.13;;;172.45;;
11269;SDS011;5692;48.956;9.200;2023-05-10T13:03:46;182.98;;;174.20;;
11269;SDS011;5692;48.956;9.200;2023-05-10T13:06:15;176.73;;;168.25;;
11269;SDS011;5692;48.956;9.200;2023-05-10T13:08:41;175.43;;;167.02;;
11269;SDS011;5692;48.956;9.200;2023-05-10T13:11:07;178.27;;;169.77;;
11269;SDS011;5692;48.956;9.200;2023-05-10T13:13:33;180.10;;;171.50;;
11269;SDS011;5692;48.956;9.200;2023-05-10T13:15:59;178.07;;;169.55;;
11269;SDS011;5692;48.956;9.200;2023-05-10T13:18:25;183.80;;;175.00;;
11269;SDS011;5692;48.956;9.200;2023-05-10T13:20:52;196.50;;;187.10;;
11269;SDS011;5692;48.956;9.200;2023-05-10T13:23:19;180.35;;;171.73;;
11269;SDS011;5692;48.956;9.200;2023-05-10T13:25:48;172.43;;;164.15;;
11269;SDS011;5692;48.956;9.200;2023-05-10T13:28:17;176.70;;;168.23;;
11269;SDS011;5692;48.956;9.200;2023-05-10T13:30:43;181.43;;;172.73;;
11269;SDS011;5692;48.956;9.200;2023-05-10T13:33:09;162.75;;;154.95;;
11269;SDS011;5692;48.956;9.200;2023-05-10T13:35:37;176.20;;;167.77;;
11269;SDS011;5692;48.956;9.200;2023-05-10T13:38:03;177.77;;;169.27;;
11269;SDS011;5692;48.956;9.200;2023-05-10T13:40:32;175.40;;;167.00;;
11269;SDS011;5692;48.956;9.200;2023-05-10T13:42:58;173.50;;;165.20;;
11269;SDS011;5692;48.956;9.200;2023-05-10T13:45:24;179.93;;;171.32;;
11269;SDS011;5692;48.956;9.200;2023-05-10T13:47:51;178.98;;;170.40;;
11269;SDS011;5692;48.956;9.200;2023-05-10T13:50:17;166.85;;;158.85;;
11269;SDS011;5692;48.956;9.200;2023-05-10T13:52:43;182.68;;;173.93;;
11269;SDS011;5692;48.956;9.200;2023-05-10T13:55:09;182.23;;;173.50;;
11269;SDS011;5692;48.956;9.200;2023-05-10T13:57:38;179.15;;;170.57;;
11269;SDS011;5692;48.956;9.200;2023-05-10T14:00:04;177.03;;;168.57;;
11269;SDS011;5692;48.956;9.200;2023-05-10T14:02:30;175.13;;;166.75;;
11269;SDS011;5692;48.956;9.200;2023-05-10T14:04:56;183.07;;;174.32;;
11269;SDS011;5692;48.956;9.200;2023-05-10T14:07:22;176.57;;;168.10;;
11269;SDS011;5692;48.956;9.200;2023-05-10T14:09:48;180.33;;;171.70;;
11269;SDS011;5692;48.956;9.200;2023-05-10T14:12:14;184.05;;;175.25;;
11269;SDS011;5692;48.956;9.200;2023-05-10T14:14:41;169.40;;;161.30;;
11269;SDS011;5692;48.956;9.200;2023-05-10T14:17:07;169.00;;;160.90;;
11269;SDS011;5692;48.956;9.200;2023-05-10T14:19:33;174.15;;;165.80;;
11269;SDS011;5692;48.956;9.200;2023-05-10T14:21:59;178.48;;;169.93;;
11269;SDS011;5692;48.956;9.200;2023-05-10T14:24:25;175.40;;;167.00;;
11269;SDS011;5692;48.956;9.200;2023-05-10T14:26:51;180.27;;;171.65;;
11269;SDS011;5692;48.956;9.200;2023-05-10T14:29:20;189.52;;;180.43;;
11269;SDS011;5692;48.956;9.200;2023-05-10T14:31:47;179.60;;;171.00;;
11269;SDS011;5692;48.956;9.200;2023-05-10T14:34:13;166.90;;;158.90;;
11269;SDS011;5692;48.956;9.200;2023-05-10T14:36:39;175.38;;;166.98;;
11269;SDS011;5692;48.956;9.200;2023-05-10T14:39:05;174.18;;;165.85;;
11269;SDS011;5692;48.956;9.200;2023-05-10T14:41:31;169.30;;;161.20;;
11269;SDS011;5692;48.956;9.200;2023-05-10T14:43:57;174.43;;;166.07;;
11269;SDS011;5692;48.956;9.200;2023-05-10T14:46:24;183.40;;;174.60;;